createdAt,value
2022-11-05T00:00:37.340Z,7.66
2022-11-05T00:03:22.774Z,7.66
2022-11-05T00:06:11.565Z,7.63
2022-11-05T00:08:57.921Z,7.63
2022-11-05T00:11:44.301Z,7.60
2022-11-05T00:14:29.651Z,7.50
2022-11-05T00:16:56.017Z,7.62
2022-11-05T00:19:22.388Z,7.64
2022-11-05T00:22:07.156Z,7.67
2022-11-05T00:24:51.993Z,7.69
2022-11-05T00:27:18.443Z,7.72
2022-11-05T00:29:44.899Z,7.74
2022-11-05T00:32:11.390Z,7.77
2022-11-05T00:34:37.770Z,7.80
2022-11-05T00:37:04.127Z,7.84
2022-11-05T00:39:30.503Z,7.85
2022-11-05T00:42:15.612Z,7.89
2022-11-05T00:45:00.485Z,7.90
2022-11-05T00:47:45.722Z,7.91
2022-11-05T00:50:12.985Z,7.92
2022-11-05T00:52:58.141Z,7.92
2022-11-05T00:55:35.269Z,7.96
2022-11-05T00:58:03.155Z,7.98
2022-11-05T01:00:31.521Z,7.94
2022-11-05T01:02:59.846Z,7.96
2022-11-05T01:05:26.573Z,8.00
2022-11-05T01:07:53.228Z,8.05
2022-11-05T01:10:20.825Z,8.06
2022-11-05T01:12:48.004Z,8.08
2022-11-05T01:15:15.089Z,8.09
2022-11-05T01:17:41.521Z,8.08
2022-11-05T01:20:08.350Z,8.11
2022-11-05T01:22:34.735Z,8.07
2022-11-05T01:25:01.229Z,8.04
2022-11-05T01:27:27.605Z,8.00
2022-11-05T01:29:53.969Z,7.99
2022-11-05T01:32:20.378Z,7.95
2022-11-05T01:34:46.788Z,7.91
2022-11-05T01:37:13.680Z,7.89
2022-11-05T01:39:40.064Z,7.90
2022-11-05T01:42:22.242Z,7.87
2022-11-05T01:44:56.163Z,7.84
2022-11-05T01:47:44.226Z,7.83
2022-11-05T01:50:23.799Z,7.78
2022-11-05T01:52:54.100Z,7.84
2022-11-05T01:55:24.721Z,7.80
2022-11-05T01:57:54.320Z,7.78
2022-11-05T02:00:20.754Z,7.75
2022-11-05T02:02:47.874Z,7.71
2022-11-05T02:05:15.482Z,7.69
2022-11-05T02:07:46.410Z,7.62
2022-11-05T02:10:15.813Z,7.64
2022-11-05T02:12:45.542Z,7.61
2022-11-05T02:15:14.523Z,7.59
2022-11-05T02:18:19.285Z,7.58
2022-11-05T02:20:59.202Z,7.53
2022-11-05T02:23:34.221Z,7.61
2022-11-05T02:26:22.403Z,7.62
2022-11-05T02:29:11.648Z,7.60
2022-11-05T02:31:52.244Z,7.58
2022-11-05T02:34:27.646Z,7.59
2022-11-05T02:37:15.796Z,7.60
2022-11-05T02:39:45.259Z,7.61
2022-11-05T02:42:26.400Z,7.64
2022-11-05T02:45:14.510Z,7.66
2022-11-05T02:48:01.945Z,7.67
2022-11-05T02:50:36.247Z,7.72
2022-11-05T02:53:32.481Z,7.74
2022-11-05T02:56:18.163Z,7.73
2022-11-05T02:58:44.538Z,7.73
2022-11-05T03:01:14.095Z,7.70
2022-11-05T03:03:44.639Z,7.74
2022-11-05T03:06:47.356Z,7.82
2022-11-05T03:09:47.535Z,7.82
2022-11-05T03:12:26.229Z,7.81
2022-11-05T03:15:15.420Z,7.80
2022-11-05T03:17:53.469Z,7.79
2022-11-05T03:20:25.724Z,7.81
2022-11-05T03:23:00.556Z,7.82
2022-11-05T03:25:30.315Z,7.81
2022-11-05T03:28:02.850Z,7.79
2022-11-05T03:30:31.984Z,7.83
2022-11-05T03:33:03.177Z,7.81
2022-11-05T03:35:34.244Z,7.82
2022-11-05T03:38:06.287Z,7.83
2022-11-05T03:40:36.518Z,7.72
2022-11-05T03:43:08.455Z,7.86
2022-11-05T03:45:40.459Z,7.85
2022-11-05T03:48:10.456Z,7.90
2022-11-05T03:51:07.731Z,7.94
2022-11-05T03:53:42.854Z,7.93
2022-11-05T03:56:18.116Z,7.88
2022-11-05T03:58:46.427Z,7.94
2022-11-05T04:01:13.141Z,7.90
2022-11-05T04:03:39.602Z,7.93
2022-11-05T04:06:26.542Z,7.93
2022-11-05T04:09:11.753Z,7.92
2022-11-05T04:11:56.917Z,7.91
2022-11-05T04:14:23.308Z,7.91
2022-11-05T04:17:08.720Z,7.92
2022-11-05T04:20:04.116Z,7.94
2022-11-05T04:22:52.045Z,7.97
2022-11-05T04:25:19.481Z,7.99
2022-11-05T04:27:46.755Z,7.99
2022-11-05T04:30:18.349Z,8.00
2022-11-05T04:32:59.606Z,8.01
2022-11-05T04:35:28.097Z,7.94
2022-11-05T04:37:54.472Z,8.01
2022-11-05T04:40:20.903Z,8.02
2022-11-05T04:42:47.290Z,8.00
2022-11-05T04:45:13.792Z,7.99
2022-11-05T04:47:40.200Z,7.99
2022-11-05T04:50:06.708Z,8.00
2022-11-05T04:52:33.057Z,8.02
2022-11-05T04:54:59.433Z,8.04
2022-11-05T04:57:25.790Z,8.06
2022-11-05T04:59:52.170Z,8.06
2022-11-05T05:02:18.785Z,8.08
2022-11-05T05:04:45.185Z,8.08
2022-11-05T05:07:11.545Z,8.07
2022-11-05T05:09:37.911Z,8.10
2022-11-05T05:12:04.418Z,8.09
2022-11-05T05:14:30.810Z,8.09
2022-11-05T05:16:57.236Z,8.10
2022-11-05T05:19:24.550Z,8.10
2022-11-05T05:21:51.108Z,8.11
2022-11-05T05:24:19.365Z,8.15
2022-11-05T05:26:48.061Z,8.15
2022-11-05T05:29:15.415Z,8.17
2022-11-05T05:31:42.510Z,8.16
2022-11-05T05:34:12.623Z,8.16
2022-11-05T05:36:39.022Z,8.16
2022-11-05T05:39:06.922Z,8.16
2022-11-05T05:41:33.490Z,8.14
2022-11-05T05:44:00.003Z,8.13
2022-11-05T05:46:26.402Z,8.11
2022-11-05T05:48:52.821Z,8.09
2022-11-05T05:51:19.741Z,8.06
2022-11-05T05:53:46.290Z,8.05
2022-11-05T05:56:14.958Z,8.02
2022-11-05T05:58:41.801Z,8.01
2022-11-05T06:01:17.240Z,8.01
2022-11-05T06:03:45.203Z,8.00
2022-11-05T06:06:13.085Z,8.00
2022-11-05T06:08:39.805Z,8.00
2022-11-05T06:11:07.031Z,7.96
2022-11-05T06:13:33.836Z,7.98
2022-11-05T06:16:05.620Z,7.98
2022-11-05T06:18:32.887Z,7.96
2022-11-05T06:21:07.462Z,7.92
2022-11-05T06:23:35.470Z,7.96
2022-11-05T06:26:04.048Z,7.97
2022-11-05T06:28:30.728Z,7.96
2022-11-05T06:30:57.579Z,7.98
2022-11-05T06:33:24.064Z,8.01
2022-11-05T06:35:50.486Z,8.01
2022-11-05T06:38:17.013Z,8.01
2022-11-05T06:40:43.446Z,8.06
2022-11-05T06:43:10.317Z,8.08
2022-11-05T06:45:37.032Z,8.11
2022-11-05T06:48:03.515Z,8.14
2022-11-05T06:50:29.902Z,8.18
2022-11-05T06:52:58.072Z,8.21
2022-11-05T06:55:27.067Z,8.24
2022-11-05T06:57:53.575Z,8.29
2022-11-05T07:00:20.129Z,8.31
2022-11-05T07:02:46.752Z,8.34
2022-11-05T07:05:14.542Z,8.32
2022-11-05T07:07:41.907Z,8.28
2022-11-05T07:10:12.147Z,8.23
2022-11-05T07:12:38.737Z,8.24
2022-11-05T07:15:05.959Z,8.22
2022-11-05T07:17:32.384Z,8.21
2022-11-05T07:19:58.800Z,8.18
2022-11-05T07:22:25.199Z,8.19
2022-11-05T07:24:51.557Z,8.21
2022-11-05T07:27:17.942Z,8.21
2022-11-05T07:29:44.294Z,8.15
2022-11-05T07:32:10.674Z,8.15
2022-11-05T07:34:37.042Z,8.11
2022-11-05T07:37:03.529Z,8.09
2022-11-05T07:39:29.894Z,8.09
2022-11-05T07:41:57.651Z,8.09
2022-11-05T07:44:31.535Z,7.92
2022-11-05T07:46:57.886Z,8.05
2022-11-05T07:49:24.235Z,8.03
2022-11-05T07:51:50.635Z,8.02
2022-11-05T07:54:17.026Z,8.02
2022-11-05T07:56:43.393Z,7.97
2022-11-05T07:59:09.825Z,7.94
2022-11-05T08:01:36.344Z,7.78
2022-11-05T08:04:02.896Z,7.88
2022-11-05T08:06:29.277Z,7.83
2022-11-05T08:08:55.846Z,7.81
2022-11-05T08:11:22.212Z,7.76
2022-11-05T08:13:48.567Z,7.78
2022-11-05T08:16:15.476Z,7.77
2022-11-05T08:18:41.900Z,7.76
2022-11-05T08:21:09.448Z,7.71
2022-11-05T08:23:35.905Z,7.76
2022-11-05T08:26:03.557Z,7.78
2022-11-05T08:28:30.203Z,7.79
2022-11-05T08:30:57.564Z,7.79
2022-11-05T08:33:25.432Z,7.88
2022-11-05T08:35:51.911Z,7.89
2022-11-05T08:38:19.916Z,7.91
2022-11-05T08:40:55.577Z,7.94
2022-11-05T08:43:22.448Z,7.96
2022-11-05T08:45:49.271Z,7.93
2022-11-05T08:48:18.662Z,7.97
2022-11-05T08:50:46.847Z,7.99
2022-11-05T08:53:14.321Z,8.01
2022-11-05T08:55:40.993Z,8.02
2022-11-05T08:58:12.371Z,8.05
2022-11-05T09:00:38.890Z,8.09
2022-11-05T09:03:07.340Z,8.06
2022-11-05T09:05:39.034Z,8.14
2022-11-05T09:08:06.722Z,8.17
2022-11-05T09:10:33.512Z,8.22
2022-11-05T09:12:59.866Z,8.24
2022-11-05T09:15:26.622Z,8.16
2022-11-05T09:17:53.040Z,8.29
2022-11-05T09:20:19.519Z,8.39
2022-11-05T09:22:46.664Z,8.47
2022-11-05T09:25:13.658Z,8.52
2022-11-05T09:27:39.991Z,8.56
2022-11-05T09:30:06.957Z,8.62
2022-11-05T09:32:33.679Z,8.68
2022-11-05T09:35:01.128Z,8.78
2022-11-05T09:37:28.125Z,8.81
2022-11-05T09:39:54.891Z,8.86
2022-11-05T09:42:25.194Z,8.87
2022-11-05T09:45:08.564Z,8.88
2022-11-05T09:47:40.129Z,8.86
2022-11-05T09:50:12.573Z,8.89
2022-11-05T09:52:38.967Z,8.92
2022-11-05T09:55:18.638Z,9.01
2022-11-05T09:57:55.881Z,9.11
2022-11-05T10:00:22.536Z,9.16
2022-11-05T10:02:56.320Z,9.22
2022-11-05T10:05:25.234Z,9.34
2022-11-05T10:07:57.375Z,9.47
2022-11-05T10:10:41.206Z,9.60
2022-11-05T10:13:45.229Z,9.76
2022-11-05T10:16:31.977Z,9.96
2022-11-05T10:19:16.102Z,10.06
2022-11-05T10:22:05.521Z,10.13
2022-11-05T10:24:29.509Z,10.18
2022-11-05T10:26:57.294Z,10.21
2022-11-05T10:29:29.156Z,10.19
2022-11-05T10:31:57.975Z,10.11
2022-11-05T10:34:30.610Z,10.04
2022-11-05T10:36:57.313Z,9.99
2022-11-05T10:39:24.905Z,10.04
2022-11-05T10:42:30.907Z,10.08
2022-11-05T10:45:19.587Z,10.20
2022-11-05T10:48:15.189Z,10.60
2022-11-05T10:50:44.145Z,11.00
2022-11-05T10:53:19.199Z,11.20
2022-11-05T10:55:50.923Z,11.40
2022-11-05T10:58:21.862Z,11.47
2022-11-05T11:01:04.111Z,11.37
2022-11-05T11:03:41.645Z,11.59
2022-11-05T11:06:27.216Z,11.44
2022-11-05T11:08:56.958Z,11.04
2022-11-05T11:11:29.238Z,10.63
2022-11-05T11:14:04.603Z,10.25
2022-11-05T11:16:37.619Z,9.98
2022-11-05T11:19:20.741Z,9.76
2022-11-05T11:22:11.179Z,9.58
2022-11-05T11:24:56.901Z,9.45
2022-11-05T11:27:30.189Z,9.37
2022-11-05T11:30:04.977Z,9.37
2022-11-05T11:32:37.278Z,9.39
2022-11-05T11:35:06.733Z,9.33
2022-11-05T11:37:42.583Z,9.31
2022-11-05T11:40:31.344Z,9.24
2022-11-05T11:43:01.628Z,9.19
2022-11-05T11:45:37.387Z,9.15
2022-11-05T11:48:14.679Z,9.13
2022-11-05T11:50:43.714Z,9.06
2022-11-05T11:53:22.107Z,9.06
2022-11-05T11:55:59.323Z,9.02
2022-11-05T11:58:47.493Z,8.92
2022-11-05T12:01:19.939Z,8.87
2022-11-05T12:03:57.506Z,8.90
2022-11-05T12:06:39.227Z,8.90
2022-11-05T12:09:23.344Z,8.82
2022-11-05T12:11:56.420Z,8.75
2022-11-05T12:14:46.597Z,8.71
2022-11-05T12:17:21.988Z,8.63
2022-11-05T12:20:19.854Z,8.56
2022-11-05T12:22:56.442Z,8.52
2022-11-05T12:25:35.796Z,8.50
2022-11-05T12:28:24.164Z,8.48
2022-11-05T12:31:11.819Z,8.48
2022-11-05T12:34:10.643Z,8.47
2022-11-05T12:36:42.506Z,8.48
2022-11-05T12:39:19.164Z,8.48
2022-11-05T12:42:17.248Z,8.43
2022-11-05T12:45:01.798Z,8.36
2022-11-05T12:47:46.250Z,8.35
2022-11-05T12:50:15.787Z,8.34
2022-11-05T12:53:14.878Z,8.32
2022-11-05T12:55:48.816Z,8.32
2022-11-05T12:58:34.639Z,8.32
2022-11-05T13:01:13.181Z,8.32
2022-11-05T13:03:58.558Z,8.36
2022-11-05T13:06:36.338Z,8.39
2022-11-05T13:09:12.271Z,8.39
2022-11-05T13:11:45.230Z,8.41
2022-11-05T13:14:16.092Z,8.44
2022-11-05T13:16:47.272Z,8.44
2022-11-05T13:19:21.179Z,8.46
2022-11-05T13:21:53.972Z,8.51
2022-11-05T13:24:49.630Z,8.47
2022-11-05T13:27:18.964Z,8.52
2022-11-05T13:29:57.141Z,8.62
2022-11-05T13:32:31.112Z,8.71
2022-11-05T13:35:00.867Z,8.73
2022-11-05T13:37:49.963Z,8.77
2022-11-05T13:40:20.132Z,8.72
2022-11-05T13:43:05.280Z,8.70
2022-11-05T13:46:05.662Z,8.61
2022-11-05T13:48:57.181Z,8.60
2022-11-05T13:51:51.868Z,8.59
2022-11-05T13:54:45.327Z,8.56
2022-11-05T13:57:32.250Z,8.48
2022-11-05T14:00:08.933Z,8.43
2022-11-05T14:02:40.457Z,8.38
2022-11-05T14:05:19.198Z,8.35
2022-11-05T14:07:47.531Z,8.34
2022-11-05T14:10:21.641Z,8.28
2022-11-05T14:12:51.597Z,8.23
2022-11-05T14:15:22.766Z,8.26
2022-11-05T14:18:02.003Z,8.24
2022-11-05T14:20:31.127Z,8.21
2022-11-05T14:23:22.982Z,8.19
2022-11-05T14:26:13.510Z,8.17
2022-11-05T14:28:51.444Z,8.17
2022-11-05T14:31:40.984Z,8.13
2022-11-05T14:34:20.414Z,8.11
2022-11-05T14:37:13.980Z,8.09
2022-11-05T14:39:41.253Z,8.09
2022-11-05T14:42:28.780Z,8.14
2022-11-05T14:44:58.429Z,8.16
2022-11-05T14:47:28.228Z,8.20
2022-11-05T14:50:03.003Z,8.20
2022-11-05T14:52:29.464Z,8.24
2022-11-05T14:54:58.132Z,8.23
2022-11-05T14:57:42.530Z,8.23
2022-11-05T15:00:28.355Z,8.22
2022-11-05T15:03:03.593Z,8.22
2022-11-05T15:05:48.005Z,8.21
2022-11-05T15:08:24.725Z,8.25
2022-11-05T15:10:54.240Z,8.27
2022-11-05T15:13:34.111Z,8.27
2022-11-05T15:16:00.483Z,8.27
2022-11-05T15:18:35.169Z,8.27
2022-11-05T15:21:04.781Z,8.27
2022-11-05T15:23:40.634Z,8.24
2022-11-05T15:26:12.343Z,8.21
2022-11-05T15:28:43.274Z,8.17
2022-11-05T15:31:12.621Z,8.22
2022-11-05T15:33:44.466Z,8.20
2022-11-05T15:36:31.203Z,8.17
2022-11-05T15:39:23.325Z,8.16
2022-11-05T15:41:44.916Z,8.15
2022-11-05T15:44:32.011Z,8.15
2022-11-05T15:47:22.107Z,8.12
2022-11-05T15:49:58.690Z,8.06
2022-11-05T15:52:35.847Z,8.06
2022-11-05T15:55:14.362Z,8.04
2022-11-05T15:57:55.448Z,8.00
2022-11-05T16:00:27.716Z,8.01
2022-11-05T16:03:17.324Z,8.01
2022-11-05T16:05:46.289Z,8.02
2022-11-05T16:08:18.840Z,7.98
2022-11-05T16:10:53.091Z,7.99
2022-11-05T16:13:32.052Z,7.98
2022-11-05T16:16:01.296Z,7.98
2022-11-05T16:18:34.392Z,7.97
2022-11-05T16:21:08.020Z,7.99
2022-11-05T16:23:49.532Z,7.99
2022-11-05T16:29:39.185Z,7.95
2022-11-05T16:32:15.044Z,7.95
2022-11-05T16:34:46.604Z,7.95
2022-11-05T16:37:15.595Z,7.95
2022-11-05T16:39:41.992Z,7.94
2022-11-05T16:42:36.893Z,7.93
2022-11-05T16:45:07.340Z,7.91
2022-11-05T16:47:36.986Z,7.91
2022-11-05T16:50:14.533Z,7.91
2022-11-05T16:52:40.982Z,7.91
2022-11-05T16:55:08.936Z,7.93
2022-11-05T16:57:35.940Z,7.95
2022-11-05T17:00:02.427Z,7.95
2022-11-05T17:02:28.929Z,7.96
2022-11-05T17:04:55.486Z,7.96
2022-11-05T17:07:22.010Z,7.95
2022-11-05T17:09:48.563Z,7.97
2022-11-05T17:12:15.335Z,7.99
2022-11-05T17:14:41.739Z,8.03
2022-11-05T17:17:08.196Z,8.01
2022-11-05T17:19:34.725Z,8.03
2022-11-05T17:22:01.143Z,8.04
2022-11-05T17:24:27.613Z,8.00
2022-11-05T17:26:54.600Z,7.95
2022-11-05T17:29:21.053Z,7.91
2022-11-05T17:31:47.485Z,7.86
2022-11-05T17:34:13.896Z,7.85
2022-11-05T17:36:40.237Z,7.83
2022-11-05T17:39:06.725Z,7.80
2022-11-05T17:41:33.144Z,7.77
2022-11-05T17:44:00.240Z,7.77
2022-11-05T17:46:26.779Z,7.73
2022-11-05T17:48:53.218Z,7.72
2022-11-05T17:51:20.342Z,7.73
2022-11-05T17:53:48.940Z,7.71
2022-11-05T17:56:28.937Z,7.69
2022-11-05T17:59:00.108Z,7.70
2022-11-05T18:01:29.850Z,7.69
2022-11-05T18:03:56.613Z,7.72
2022-11-05T18:06:23.059Z,7.70
2022-11-05T18:08:49.547Z,7.69
2022-11-05T18:11:16.180Z,7.69
2022-11-05T18:13:42.798Z,7.64
2022-11-05T18:16:09.183Z,7.61
2022-11-05T18:18:35.650Z,7.57
2022-11-05T18:21:02.044Z,7.55
2022-11-05T18:23:28.418Z,7.52
2022-11-05T18:25:54.803Z,7.50
2022-11-05T18:28:21.206Z,7.47
2022-11-05T18:30:47.597Z,7.43
2022-11-05T18:33:14.399Z,7.40
2022-11-05T18:35:44.878Z,7.34
2022-11-05T18:38:11.607Z,7.29
2022-11-05T18:40:38.330Z,7.26
2022-11-05T18:43:04.715Z,7.25
2022-11-05T18:45:33.221Z,7.22
2022-11-05T18:48:01.505Z,7.17
2022-11-05T18:50:29.024Z,7.12
2022-11-05T18:52:56.158Z,7.09
2022-11-05T18:55:23.564Z,7.08
2022-11-05T18:57:50.038Z,7.05
2022-11-05T19:00:16.785Z,7.05
2022-11-05T19:02:43.335Z,7.05
2022-11-05T19:07:56.859Z,6.95
2022-11-05T19:10:23.394Z,6.95
2022-11-05T19:12:50.129Z,6.92
2022-11-05T19:15:16.927Z,6.85
2022-11-05T19:17:43.621Z,6.72
2022-11-05T19:20:10.661Z,6.62
2022-11-05T19:22:37.208Z,6.54
2022-11-05T19:25:05.015Z,6.49
2022-11-05T19:27:31.423Z,6.43
2022-11-05T19:29:57.794Z,6.35
2022-11-05T19:32:24.424Z,6.32
2022-11-05T19:34:50.795Z,6.31
2022-11-05T19:37:17.234Z,6.27
2022-11-05T19:39:43.836Z,6.26
2022-11-05T19:42:10.205Z,6.25
2022-11-05T19:44:36.650Z,6.25
2022-11-05T19:47:03.071Z,6.24
2022-11-05T19:49:29.431Z,6.21
2022-11-05T19:51:56.036Z,6.15
2022-11-05T19:54:22.644Z,6.13
2022-11-05T19:56:50.178Z,6.14
2022-11-05T19:59:16.675Z,6.14
2022-11-05T20:01:43.199Z,6.16
2022-11-05T20:04:11.806Z,6.17
2022-11-05T20:06:39.999Z,6.13
2022-11-05T20:09:27.106Z,6.20
2022-11-05T20:11:56.070Z,6.22
2022-11-05T20:14:23.881Z,6.17
2022-11-05T20:16:50.756Z,6.15
2022-11-05T20:19:19.219Z,6.17
2022-11-05T20:21:46.000Z,6.16
2022-11-05T20:24:18.828Z,6.17
2022-11-05T20:26:48.720Z,6.15
2022-11-05T20:29:15.146Z,6.14
2022-11-05T20:31:41.555Z,6.13
2022-11-05T20:34:08.824Z,6.11
2022-11-05T20:36:35.204Z,6.06
2022-11-05T20:39:02.856Z,5.98
2022-11-05T20:41:30.544Z,5.85
2022-11-05T20:43:56.971Z,5.78
2022-11-05T20:46:23.697Z,5.67
2022-11-05T20:48:50.611Z,5.66
2022-11-05T20:51:20.127Z,5.62
2022-11-05T20:53:47.633Z,5.60
2022-11-05T20:56:22.620Z,5.57
2022-11-05T20:58:49.452Z,5.54
2022-11-05T21:01:16.660Z,5.49
2022-11-05T21:03:45.214Z,5.49
2022-11-05T21:06:12.688Z,5.46
2022-11-05T21:08:39.505Z,5.44
2022-11-05T21:11:07.009Z,5.43
2022-11-05T21:13:33.953Z,5.46
2022-11-05T21:16:00.959Z,5.48
2022-11-05T21:18:30.188Z,5.52
2022-11-05T21:20:57.411Z,5.57
2022-11-05T21:23:23.856Z,5.58
2022-11-05T21:25:50.343Z,5.62
2022-11-05T21:28:17.160Z,5.56
2022-11-05T21:30:45.718Z,5.49
2022-11-05T21:33:13.611Z,5.41
2022-11-05T21:35:46.113Z,5.39
2022-11-05T21:38:15.111Z,5.37
2022-11-05T21:40:42.463Z,5.36
2022-11-05T21:43:09.116Z,5.32
2022-11-05T21:45:38.219Z,5.38
2022-11-05T21:48:04.911Z,5.40
2022-11-05T21:50:49.828Z,5.38
2022-11-05T21:53:35.813Z,5.30
2022-11-05T21:56:56.733Z,5.28
2022-11-05T21:59:43.210Z,5.15
2022-11-05T22:02:12.019Z,5.10
2022-11-05T22:04:41.745Z,5.07
2022-11-05T22:07:09.491Z,5.09
2022-11-05T22:09:36.342Z,5.14
2022-11-05T22:12:03.087Z,5.15
2022-11-05T22:14:29.695Z,5.12
2022-11-05T22:16:56.874Z,5.15
2022-11-05T22:19:23.824Z,5.06
2022-11-05T22:21:50.930Z,4.95
2022-11-05T22:24:18.087Z,4.89
2022-11-05T22:26:44.719Z,4.78
2022-11-05T22:29:12.081Z,4.80
2022-11-05T22:31:38.515Z,4.78
2022-11-05T22:34:06.053Z,4.77
2022-11-05T22:36:34.167Z,4.71
2022-11-05T22:39:01.231Z,4.73
2022-11-05T22:41:27.667Z,4.74
2022-11-05T22:43:54.210Z,4.74
2022-11-05T22:46:23.058Z,4.78
2022-11-05T22:48:49.835Z,4.76
2022-11-05T22:51:19.899Z,4.72
2022-11-05T22:53:46.780Z,4.69
2022-11-05T22:56:15.439Z,4.70
2022-11-05T22:58:41.879Z,4.70
2022-11-05T23:01:11.719Z,4.71
2022-11-05T23:03:40.614Z,4.72
2022-11-05T23:06:30.036Z,4.73
2022-11-05T23:09:15.919Z,4.78
2022-11-05T23:11:44.269Z,4.80
2022-11-05T23:14:12.767Z,4.83
2022-11-05T23:16:58.138Z,4.85
2022-11-05T23:19:43.455Z,4.85
2022-11-05T23:22:37.852Z,4.83
2022-11-05T23:25:06.048Z,4.78
2022-11-05T23:27:35.442Z,4.69
2022-11-05T23:30:05.396Z,4.63
2022-11-05T23:32:32.567Z,4.61
2022-11-05T23:34:58.982Z,4.59
2022-11-05T23:37:46.317Z,4.60
2022-11-05T23:40:16.509Z,4.61
2022-11-05T23:43:02.172Z,4.63
2022-11-05T23:45:48.486Z,4.62
2022-11-05T23:48:36.091Z,4.60
2022-11-05T23:51:10.862Z,4.59
2022-11-05T23:53:40.043Z,4.59
2022-11-05T23:56:09.681Z,4.63
2022-11-05T23:58:37.205Z,4.63
